FLM weather

Filadelfia Airport
Filadelfia, Boquerón Department, Paraguay

Public forecast

Using degrees Celsius for public forecast. Weather courtesy of forecast.io.

METAR (pilot weather report)

Report is more than 6 hours old.

Closest report is Dr. Luis Maria Argaña International Airport, 36.6 nm (67.8 km) WNW. Retrieved 2019/07/05 00:00 UTC (11 days ago):

SGME 050000Z 18005KT 9999 OVC020 14/10 Q1008

TAF (pilot weather forecast)

Closest forecast is Teniente Col Carmelo Peralta Airport, 159.1 nm (294.7 km) ESE. Retrieved 2019/07/16 06:00 UTC (2 hours ago):

TAF SGCO 160457Z 1606/1706 18005KT CAVOK TX24/1619Z TN11/1609Z PROB30 1609/1611 5000 BR NSC BECMG 1612/1615 21010KT CAVOK